Time;durP1;ratioP1;P1;durP2;ratioP2;P2;SDS_P1;SDS_P2;PMS_P1;PMS_P2;Temp;Humidity;BMP_temperature;BMP_pressure;BME280_temperature;BME280_humidity;BME280_pressure;Samples;Min_cycle;Max_cycle;Signal;HPM_P1;HPM_P2
2023/01/22 00:01:07;;;;;;;24.13;14.88;;;;;;;0.81;76.97;101652.50;4109141;28;20039;-63
2023/01/22 00:03:10;;;;;;;25.60;14.70;;;;;;;0.78;76.86;101642.91;4128373;28;20520;-62
2023/01/22 00:05:13;;;;;;;24.88;15.23;;;;;;;0.85;76.52;101655.41;4114443;28;20038;-63
2023/01/22 00:07:15;;;;;;;24.23;15.15;;;;;;;0.78;77.23;101650.59;4118436;28;20513;-63
2023/01/22 00:09:21;;;;;;;27.52;16.17;;;;;;;0.87;77.02;101647.81;4123976;28;20531;-63
2023/01/22 00:11:24;;;;;;;21.15;14.93;;;;;;;0.81;76.48;101648.25;4122783;28;20038;-62
2023/01/22 00:13:28;;;;;;;23.02;14.60;;;;;;;0.82;76.86;101639.81;4127394;28;20112;-63
2023/01/22 00:15:31;;;;;;;27.65;15.07;;;;;;;0.82;77.06;101644.06;4123928;28;20046;-63
2023/01/22 00:17:34;;;;;;;25.33;15.80;;;;;;;0.81;76.63;101632.91;4115127;28;20043;-63
2023/01/22 00:19:36;;;;;;;25.63;15.07;;;;;;;0.91;76.36;101641.28;4121446;28;20042;-63
2023/01/22 00:21:39;;;;;;;25.13;15.52;;;;;;;0.79;76.45;101639.59;4124718;28;20034;-63
2023/01/22 00:23:42;;;;;;;25.75;14.88;;;;;;;0.82;76.59;101641.50;4125605;28;20038;-63
2023/01/22 00:25:46;;;;;;;22.98;14.45;;;;;;;0.73;77.36;101641.72;4129557;28;20072;-62
2023/01/22 00:27:48;;;;;;;24.70;14.63;;;;;;;0.86;76.72;101639.25;4116417;28;20047;-63
2023/01/22 00:29:53;;;;;;;22.25;15.55;;;;;;;0.68;77.13;101636.22;4115822;28;20047;-63
2023/01/22 00:31:56;;;;;;;24.58;15.48;;;;;;;0.67;77.83;101629.34;4121665;28;20142;-63
2023/01/22 00:33:58;;;;;;;24.17;14.77;;;;;;;0.73;77.56;101638.25;4123673;28;20043;-63
2023/01/22 00:36:04;;;;;;;22.42;14.63;;;;;;;0.81;77.72;101637.16;4127842;28;20685;-62
2023/01/22 00:38:07;;;;;;;23.45;14.48;;;;;;;0.81;77.73;101626.91;4104268;28;20492;-62
2023/01/22 00:40:11;;;;;;;22.85;15.07;;;;;;;0.83;77.59;101625.34;4118242;28;20030;-62
2023/01/22 00:42:14;;;;;;;21.92;13.43;;;;;;;0.86;77.53;101620.44;4122582;28;20042;-62
2023/01/22 00:44:17;;;;;;;25.65;12.68;;;;;;;0.78;77.78;101616.44;4121877;28;20400;-61
2023/01/22 00:46:21;;;;;;;23.70;13.63;;;;;;;0.88;77.22;101618.88;4127305;28;20133;-61
2023/01/22 00:48:24;;;;;;;21.58;13.80;;;;;;;0.91;77.42;101613.09;4108458;28;20035;-61
2023/01/22 00:50:28;;;;;;;22.35;14.07;;;;;;;0.94;76.92;101614.19;4116276;28;20081;-61
2023/01/22 00:52:31;;;;;;;22.15;13.20;;;;;;;0.94;76.45;101611.66;4117776;28;20072;-61
2023/01/22 00:54:34;;;;;;;22.33;12.50;;;;;;;0.85;76.54;101613.56;4126232;28;20038;-61
2023/01/22 00:56:36;;;;;;;20.38;12.80;;;;;;;0.89;76.58;101617.22;4126528;28;20133;-61
2023/01/22 00:58:39;;;;;;;23.20;14.32;;;;;;;0.97;76.47;101609.31;4128421;28;20077;-61
2023/01/22 01:00:43;;;;;;;17.95;11.35;;;;;;;0.92;76.64;101609.75;4115319;28;20066;-64
2023/01/22 01:05:08;;;;;;;20.60;12.60;;;;;;;1.01;76.25;101606.19;4135863;28;20472;-62
2023/01/22 01:07:11;;;;;;;23.40;13.13;;;;;;;0.96;76.60;101607.50;4125391;28;20462;-62
2023/01/22 01:09:14;;;;;;;22.88;13.40;;;;;;;0.96;76.57;101612.63;4127330;28;20134;-62
2023/01/22 01:11:20;;;;;;;20.42;12.80;;;;;;;0.94;76.67;101610.78;4119764;28;20054;-62
2023/01/22 01:13:24;;;;;;;21.17;13.10;;;;;;;0.84;76.94;101606.66;4118165;28;20038;-62
2023/01/22 01:15:27;;;;;;;20.10;13.02;;;;;;;0.85;76.99;101611.00;4104764;28;20418;-62
2023/01/22 01:17:30;;;;;;;24.35;13.35;;;;;;;0.82;77.21;101603.97;4124551;28;20038;-62
2023/01/22 01:19:34;;;;;;;22.65;14.02;;;;;;;0.94;77.04;101608.22;4114974;28;20532;-62
2023/01/22 01:21:38;;;;;;;18.98;12.27;;;;;;;1.04;76.27;101603.84;4104289;28;20106;-62
2023/01/22 01:23:42;;;;;;;24.60;13.40;;;;;;;1.01;76.37;101606.19;4116339;28;20118;-62
2023/01/22 01:25:45;;;;;;;19.02;12.15;;;;;;;0.92;76.60;101599.50;4120116;28;20043;-62
2023/01/22 01:27:48;;;;;;;18.65;12.18;;;;;;;0.93;76.73;101608.97;4123124;28;20097;-61
2023/01/22 01:29:52;;;;;;;21.23;12.93;;;;;;;0.90;76.76;101603.63;4114806;28;20042;-61
2023/01/22 01:31:56;;;;;;;22.75;13.02;;;;;;;0.90;76.74;101601.09;4127823;28;20294;-61
2023/01/22 01:33:59;;;;;;;21.08;12.38;;;;;;;0.97;76.72;101598.19;4115414;28;20039;-61
2023/01/22 01:36:06;;;;;;;20.73;12.15;;;;;;;0.91;76.79;101602.88;4118031;28;20468;-62
2023/01/22 01:38:09;;;;;;;20.42;12.15;;;;;;;0.93;76.64;101601.28;4116017;28;20053;-61
2023/01/22 01:40:12;;;;;;;19.45;12.35;;;;;;;0.93;76.48;101609.84;4123742;28;20034;-61
2023/01/22 01:42:23;;;;;;;18.58;12.50;;;;;;;1.01;76.00;101611.31;4110760;28;20050;-61
2023/01/22 01:44:26;;;;;;;17.52;11.50;;;;;;;0.94;76.22;101609.09;4105224;28;20035;-62
2023/01/22 01:46:29;;;;;;;19.45;11.40;;;;;;;0.97;76.88;101604.19;4113919;28;20097;-62
2023/01/22 01:48:36;;;;;;;17.25;11.80;;;;;;;0.96;76.66;101607.50;4103596;28;20039;-62
2023/01/22 01:50:41;;;;;;;18.25;11.48;;;;;;;0.89;76.81;101605.28;4107531;28;20101;-62
2023/01/22 01:52:46;;;;;;;18.90;11.80;;;;;;;0.95;77.27;101602.28;4110808;28;20126;-62
2023/01/22 01:54:52;;;;;;;17.83;12.02;;;;;;;0.98;77.01;101600.84;4120664;28;20046;-62
2023/01/22 01:57:01;;;;;;;21.02;13.10;;;;;;;1.02;76.68;101600.28;4131423;28;20104;-61
2023/01/22 01:59:08;;;;;;;19.05;11.43;;;;;;;1.06;76.53;101597.94;4118579;28;20090;-62
2023/01/22 02:01:13;;;;;;;18.55;11.75;;;;;;;1.06;76.33;101593.69;4122032;28;20124;-62
2023/01/22 02:03:17;;;;;;;19.48;10.88;;;;;;;1.04;76.73;101596.16;4125584;28;20039;-63
2023/01/22 02:05:20;;;;;;;19.25;11.70;;;;;;;1.03;77.01;101594.38;4114978;28;20027;-62
2023/01/22 02:07:23;;;;;;;20.45;11.98;;;;;;;0.97;76.92;101604.19;4114586;28;20050;-62
2023/01/22 02:09:28;;;;;;;21.02;12.65;;;;;;;1.11;76.61;101601.69;4117683;28;20389;-63
2023/01/22 02:11:32;;;;;;;19.65;11.63;;;;;;;1.15;76.56;101599.47;4121446;28;20121;-62
2023/01/22 02:13:37;;;;;;;18.83;11.25;;;;;;;1.13;76.16;101600.16;4114210;28;20038;-62
2023/01/22 02:15:40;;;;;;;19.38;11.63;;;;;;;1.15;76.42;101589.22;4121040;28;20039;-62
2023/01/22 02:17:43;;;;;;;17.77;11.20;;;;;;;1.10;76.26;101587.16;4112980;28;20042;-61
2023/01/22 02:19:47;;;;;;;18.30;11.73;;;;;;;1.13;76.26;101590.78;4121035;28;20038;-62
2023/01/22 02:21:51;;;;;;;19.08;11.68;;;;;;;1.17;76.16;101591.91;4129823;28;20046;-61
2023/01/22 02:23:54;;;;;;;18.35;11.23;;;;;;;1.10;76.36;101593.13;4117835;28;20527;-62
2023/01/22 02:25:58;;;;;;;18.52;12.02;;;;;;;1.17;76.25;101595.34;4122651;28;20081;-63
2023/01/22 02:28:01;;;;;;;18.42;12.10;;;;;;;1.14;76.58;101586.56;4124227;28;20136;-61
2023/01/22 02:30:04;;;;;;;15.77;10.93;;;;;;;1.14;76.66;101591.66;4127933;28;20069;-61
2023/01/22 02:32:07;;;;;;;19.92;12.00;;;;;;;1.17;76.09;101594.47;4119875;28;20042;-61
2023/01/22 02:34:11;;;;;;;18.20;11.15;;;;;;;1.26;76.15;101589.13;4099073;28;20485;-62
2023/01/22 02:36:15;;;;;;;17.85;11.63;;;;;;;1.29;75.66;101581.63;4120321;28;20120;-61
2023/01/22 02:38:19;;;;;;;19.33;12.52;;;;;;;1.19;76.06;101583.53;4116591;28;20031;-61
2023/01/22 02:40:22;;;;;;;18.38;11.60;;;;;;;1.19;76.33;101577.53;4123906;28;20428;-61
2023/01/22 02:42:26;;;;;;;19.02;12.25;;;;;;;1.16;76.85;101580.75;4102116;28;20102;-61
2023/01/22 02:44:30;;;;;;;18.25;11.60;;;;;;;1.16;77.14;101574.75;4121810;28;20620;-61
2023/01/22 02:46:33;;;;;;;18.80;12.30;;;;;;;1.35;76.32;101570.13;4114598;28;20444;-61
2023/01/22 02:48:36;;;;;;;17.95;10.73;;;;;;;1.33;76.35;101569.16;4117260;28;20066;-63
2023/01/22 02:50:38;;;;;;;18.08;11.02;;;;;;;1.36;75.98;101579.59;4119962;28;20432;-62
2023/01/22 02:52:42;;;;;;;20.98;12.32;;;;;;;1.42;76.19;101573.09;4105631;28;20086;-61
2023/01/22 02:54:46;;;;;;;18.30;11.63;;;;;;;1.42;75.74;101580.78;4124441;28;20038;-61
2023/01/22 02:56:49;;;;;;;17.83;10.45;;;;;;;1.44;75.67;101576.69;4113888;28;20054;-62
2023/01/22 02:58:51;;;;;;;21.33;11.90;;;;;;;1.38;76.15;101585.72;4114041;28;20121;-62
2023/01/22 03:00:55;;;;;;;16.08;10.98;;;;;;;1.43;75.65;101585.13;4118189;28;20066;-61
2023/01/22 03:02:58;;;;;;;18.45;11.88;;;;;;;1.48;75.63;101579.56;4137230;28;20129;-61
2023/01/22 03:05:03;;;;;;;17.77;11.18;;;;;;;1.39;75.89;101590.06;4119816;28;20047;-62
2023/01/22 03:07:06;;;;;;;15.88;9.93;;;;;;;1.50;74.89;101577.97;4126805;28;20161;-61
2023/01/22 03:09:11;;;;;;;14.65;9.95;;;;;;;1.48;75.35;101578.69;4127802;28;20121;-61
2023/01/22 03:11:16;;;;;;;17.75;11.10;;;;;;;1.39;75.19;101582.38;4099680;28;20050;-61
2023/01/22 03:22:42;;;;;;;19.95;10.23;;;;;;;1.45;75.04;101579.34;4130790;28;20472;-62
2023/01/22 03:24:49;;;;;;;15.95;9.93;;;;;;;1.41;75.26;101576.47;4115602;28;20400;-62
2023/01/22 03:26:53;;;;;;;17.13;9.65;;;;;;;1.31;75.61;101577.50;4117663;28;20054;-61
2023/01/22 03:28:56;;;;;;;15.30;10.75;;;;;;;1.31;75.97;101564.69;4120873;28;20067;-62
2023/01/22 03:30:59;;;;;;;18.15;9.55;;;;;;;1.48;75.02;101566.75;4125003;28;20089;-62
2023/01/22 03:33:02;;;;;;;15.52;10.07;;;;;;;1.48;75.06;101571.00;4126411;28;20042;-62
2023/01/22 03:35:05;;;;;;;13.80;9.25;;;;;;;1.37;75.42;101562.53;4112260;28;20055;-61
2023/01/22 03:37:21;;;;;;;12.68;8.40;;;;;;;1.39;75.40;101567.00;4102981;28;20546;-62
2023/01/22 03:39:27;;;;;;;14.82;9.50;;;;;;;1.45;75.24;101578.47;4118180;28;20038;-61
2023/01/22 03:41:30;;;;;;;13.85;9.20;;;;;;;1.56;74.65;101565.59;4120982;28;20117;-62
2023/01/22 03:43:35;;;;;;;18.65;9.88;;;;;;;1.44;74.73;101567.31;4122812;28;20034;-62
2023/01/22 03:45:41;;;;;;;14.05;8.43;;;;;;;1.39;75.31;101569.56;4126083;28;20122;-61
2023/01/22 03:47:47;;;;;;;14.73;8.80;;;;;;;1.43;75.15;101567.22;4127570;28;20042;-62
2023/01/22 03:49:57;;;;;;;12.88;8.48;;;;;;;1.46;74.77;101564.84;4108613;28;20042;-61
2023/01/22 03:52:00;;;;;;;14.40;8.82;;;;;;;1.47;75.27;101564.94;4118241;28;20521;-61
2023/01/22 03:54:03;;;;;;;15.80;9.18;;;;;;;1.48;75.25;101563.31;4118018;28;20527;-62
2023/01/22 03:56:08;;;;;;;15.13;9.68;;;;;;;1.54;74.80;101569.72;4105686;28;20051;-61
2023/01/22 03:58:12;;;;;;;13.20;8.38;;;;;;;1.57;74.51;101580.19;4124747;28;20042;-62
2023/01/22 04:00:17;;;;;;;16.90;10.70;;;;;;;1.51;74.46;101569.50;4143723;28;20049;-62
2023/01/22 04:02:20;;;;;;;14.52;9.18;;;;;;;1.45;75.40;101573.34;4121735;28;20039;-62
2023/01/22 04:04:38;;;;;;;13.98;8.75;;;;;;;1.34;75.66;101578.63;4095174;28;20055;-62
2023/01/22 04:06:41;;;;;;;15.10;8.93;;;;;;;1.49;74.99;101571.09;4103287;28;20075;-62
2023/01/22 04:08:46;;;;;;;14.02;9.00;;;;;;;1.52;74.89;101567.81;4121611;28;20093;-61
2023/01/22 04:10:49;;;;;;;15.27;9.30;;;;;;;1.43;75.24;101575.81;4115131;28;20113;-61
2023/01/22 04:12:52;;;;;;;12.70;8.77;;;;;;;1.39;75.49;101573.81;4126329;28;20126;-62
2023/01/22 04:14:57;;;;;;;15.32;9.57;;;;;;;1.37;75.21;101565.09;4115683;28;20042;-62
2023/01/22 04:17:02;;;;;;;13.05;7.93;;;;;;;1.42;75.31;101574.00;4117015;28;20039;-62
2023/01/22 04:19:15;;;;;;;15.40;9.13;;;;;;;1.43;75.37;101580.00;4116452;28;20061;-62
2023/01/22 04:21:40;;;;;;;12.95;8.90;;;;;;;1.44;75.69;101582.69;4123983;28;20086;-62
2023/01/22 04:23:45;;;;;;;14.25;9.32;;;;;;;1.45;75.47;101584.47;4125065;28;20071;-62
2023/01/22 04:25:49;;;;;;;12.77;8.60;;;;;;;1.42;75.44;101583.34;4129924;28;20038;-61
2023/01/22 04:27:52;;;;;;;12.98;8.40;;;;;;;1.43;75.48;101585.13;4109561;28;20047;-61
2023/01/22 04:29:56;;;;;;;13.07;8.00;;;;;;;1.47;75.79;101589.69;4101862;28;20078;-61
2023/01/22 04:32:01;;;;;;;11.50;7.70;;;;;;;1.55;75.24;101589.44;4120856;28;20054;-61
2023/01/22 04:34:22;;;;;;;11.02;8.13;;;;;;;1.49;75.01;101589.03;4124657;28;20607;-61
2023/01/22 04:36:54;;;;;;;14.55;8.95;;;;;;;1.53;74.74;101595.25;4108011;28;20054;-61
2023/01/22 04:38:57;;;;;;;13.82;8.88;;;;;;;1.49;74.90;101589.03;4116537;28;20494;-61
2023/01/22 04:41:00;;;;;;;12.95;8.18;;;;;;;1.54;75.05;101594.47;4128716;28;20386;-62
2023/01/22 04:43:04;;;;;;;13.57;8.57;;;;;;;1.47;74.84;101592.25;4120463;28;20053;-62
2023/01/22 04:45:09;;;;;;;13.80;8.90;;;;;;;1.47;75.18;101587.13;4123582;28;20039;-62
2023/01/22 04:47:15;;;;;;;11.32;7.70;;;;;;;1.42;75.52;101594.50;4110834;28;20046;-62
2023/01/22 04:49:20;;;;;;;15.02;8.23;;;;;;;1.50;75.14;101583.09;4117132;28;20031;-62
2023/01/22 04:51:24;;;;;;;12.70;8.48;;;;;;;1.47;75.30;101589.69;4117590;28;20496;-67
2023/01/22 04:53:28;;;;;;;13.10;7.50;;;;;;;1.49;75.39;101583.00;4119879;28;20129;-62
2023/01/22 04:55:31;;;;;;;12.85;8.25;;;;;;;1.38;75.50;101584.81;4124991;28;20062;-62
2023/01/22 04:57:38;;;;;;;13.05;7.95;;;;;;;1.46;75.91;101575.09;4126048;28;20050;-62
2023/01/22 04:59:41;;;;;;;13.02;7.80;;;;;;;1.51;75.28;101578.88;4121675;28;20039;-61
2023/01/22 05:01:44;;;;;;;12.20;7.72;;;;;;;1.41;75.75;101574.78;4115868;28;20416;-64
2023/01/22 05:03:48;;;;;;;11.30;7.50;;;;;;;1.43;76.21;101574.88;4118407;28;20043;-62
2023/01/22 05:05:51;;;;;;;10.60;7.13;;;;;;;1.53;75.21;101582.44;4114655;28;20053;-62
2023/01/22 05:07:54;;;;;;;11.30;7.80;;;;;;;1.49;75.51;101580.44;4125205;28;20052;-62
2023/01/22 05:09:57;;;;;;;14.27;7.70;;;;;;;1.47;75.54;101576.88;4119573;28;20038;-61
2023/01/22 05:12:00;;;;;;;10.60;6.85;;;;;;;1.47;75.48;101577.75;4115891;28;20054;-62
2023/01/22 05:14:08;;;;;;;13.07;7.72;;;;;;;1.46;76.09;101591.38;4110218;28;20038;-62
2023/01/22 05:16:13;;;;;;;12.00;7.47;;;;;;;1.42;75.83;101596.16;4120924;28;20580;-62
2023/01/22 05:18:15;;;;;;;11.18;7.53;;;;;;;1.48;75.81;101594.06;4118852;28;20126;-62
2023/01/22 05:20:27;;;;;;;10.13;6.70;;;;;;;1.56;75.19;101587.75;4126366;28;20085;-62
2023/01/22 05:22:29;;;;;;;13.20;8.60;;;;;;;1.52;75.61;101596.00;4117427;28;20114;-62
2023/01/22 05:24:33;;;;;;;10.90;7.00;;;;;;;1.51;75.40;101599.38;4116039;28;20122;-62
2023/01/22 05:26:36;;;;;;;11.40;7.68;;;;;;;1.51;75.27;101599.38;4119603;28;20373;-62
2023/01/22 05:28:45;;;;;;;9.55;7.10;;;;;;;1.43;75.63;101595.38;4123216;28;20089;-63
2023/01/22 05:31:04;;;;;;;11.95;7.25;;;;;;;1.46;75.47;101598.16;4123514;28;20034;-62
2023/01/22 05:33:22;;;;;;;13.05;7.93;;;;;;;1.48;75.59;101604.31;4116302;28;20046;-62
2023/01/22 05:35:26;;;;;;;12.00;6.88;;;;;;;1.56;75.65;101595.44;4117201;28;20047;-62
2023/01/22 05:37:31;;;;;;;11.10;7.10;;;;;;;1.50;75.28;101610.41;4119750;28;20077;-62
2023/01/22 05:39:35;;;;;;;9.02;6.63;;;;;;;1.44;75.93;101612.56;4122563;28;20428;-62
2023/01/22 05:41:40;;;;;;;10.95;6.22;;;;;;;1.52;75.99;101612.31;4126805;28;20042;-62
2023/01/22 05:43:43;;;;;;;8.70;6.20;;;;;;;1.59;75.23;101607.59;4119822;28;20067;-63
2023/01/22 05:45:52;;;;;;;9.98;7.15;;;;;;;1.50;74.88;101616.41;4108249;28;20066;-62
2023/01/22 05:48:16;;;;;;;9.77;6.78;;;;;;;1.43;75.44;101616.81;4120209;28;20042;-62
2023/01/22 05:50:34;;;;;;;9.18;6.38;;;;;;;1.48;75.86;101614.56;4104552;28;20042;-62
2023/01/22 05:52:43;;;;;;;11.90;6.40;;;;;;;1.52;75.72;101624.19;4126367;28;20050;-62
2023/01/22 05:54:46;;;;;;;10.32;6.72;;;;;;;1.52;75.38;101629.31;4120209;28;20042;-62
2023/01/22 05:56:48;;;;;;;10.30;6.00;;;;;;;1.51;75.60;101627.56;4115931;28;20038;-62
2023/01/22 05:58:52;;;;;;;9.68;6.18;;;;;;;1.59;75.02;101622.97;4124826;28;20124;-62
2023/01/22 06:00:55;;;;;;;10.07;6.05;;;;;;;1.56;75.25;101623.63;4117517;28;20039;-62
2023/01/22 06:03:04;;;;;;;11.43;7.10;;;;;;;1.55;75.39;101627.00;4107890;28;20051;-62
2023/01/22 06:05:17;;;;;;;8.95;6.28;;;;;;;1.50;75.33;101636.03;4123644;28;20069;-63
2023/01/22 06:07:30;;;;;;;9.90;6.55;;;;;;;1.49;75.16;101627.47;4114173;28;20047;-62
2023/01/22 06:09:32;;;;;;;8.77;5.97;;;;;;;1.57;75.35;101626.31;4119000;28;20074;-62
2023/01/22 06:11:35;;;;;;;9.63;6.85;;;;;;;1.43;75.52;101631.25;4120962;28;20208;-62
2023/01/22 06:13:39;;;;;;;8.38;5.97;;;;;;;1.48;75.36;101629.94;4124590;28;20042;-63
2023/01/22 06:15:52;;;;;;;11.18;6.78;;;;;;;1.52;75.51;101626.78;4112408;28;20042;-62
2023/01/22 06:18:15;;;;;;;9.30;6.32;;;;;;;1.48;75.49;101629.94;4115658;28;20050;-62
2023/01/22 06:20:18;;;;;;;15.95;7.35;;;;;;;1.48;75.11;101633.38;4117581;28;20039;-62
2023/01/22 06:22:21;;;;;;;8.98;5.93;;;;;;;1.51;75.27;101630.13;4122716;28;20129;-62
2023/01/22 06:24:30;;;;;;;9.30;6.57;;;;;;;1.45;75.37;101622.91;4123300;28;20050;-62
2023/01/22 06:26:35;;;;;;;11.40;7.18;;;;;;;1.49;76.02;101629.13;4126021;28;20612;-62
2023/01/22 06:28:39;;;;;;;10.00;6.88;;;;;;;1.43;75.85;101631.25;4114038;28;20528;-62
2023/01/22 06:30:42;;;;;;;11.07;7.20;;;;;;;1.44;75.65;101628.81;4116006;28;20043;-62
2023/01/22 06:32:45;;;;;;;11.80;7.65;;;;;;;1.47;75.72;101631.56;4119127;28;20481;-62
2023/01/22 06:34:48;;;;;;;10.43;7.03;;;;;;;1.46;75.91;101623.78;4138209;28;20471;-62
2023/01/22 06:36:52;;;;;;;10.48;7.18;;;;;;;1.54;75.64;101630.34;4123254;28;20038;-62
2023/01/22 06:38:55;;;;;;;11.65;6.05;;;;;;;1.55;75.53;101632.13;4107066;28;20494;-62
2023/01/22 06:41:11;;;;;;;9.25;6.05;;;;;;;1.46;75.82;101622.13;4129589;28;20141;-62
2023/01/22 06:43:16;;;;;;;9.55;7.05;;;;;;;1.40;75.89;101624.25;4133766;28;20034;-62
2023/01/22 06:45:20;;;;;;;11.25;7.00;;;;;;;1.46;76.00;101628.91;4125135;28;20503;-62
2023/01/22 06:47:28;;;;;;;9.63;6.32;;;;;;;1.60;75.15;101624.75;4127240;28;20039;-62
2023/01/22 06:49:31;;;;;;;8.82;5.97;;;;;;;1.58;75.25;101632.34;4125119;28;20078;-62
2023/01/22 06:51:35;;;;;;;10.95;5.95;;;;;;;1.47;75.29;101628.13;4116745;28;20090;-62
2023/01/22 06:53:38;;;;;;;10.10;6.80;;;;;;;1.56;75.33;101636.47;4119382;28;20041;-63
2023/01/22 06:55:41;;;;;;;9.05;5.75;;;;;;;1.55;75.68;101639.81;4122444;28;20045;-62
2023/01/22 06:57:45;;;;;;;9.18;5.80;;;;;;;1.51;75.83;101646.38;4108885;28;20051;-63
2023/01/22 06:59:48;;;;;;;9.35;6.53;;;;;;;1.58;75.22;101637.47;4127603;28;20046;-63
2023/01/22 07:01:50;;;;;;;9.02;5.95;;;;;;;1.49;75.42;101639.38;4124339;28;20046;-63
2023/01/22 07:03:54;;;;;;;8.20;5.60;;;;;;;1.51;75.85;101640.38;4123641;28;20509;-63
2023/01/22 07:05:58;;;;;;;8.50;5.70;;;;;;;1.42;76.12;101647.41;4119978;28;20071;-63
2023/01/22 07:08:01;;;;;;;7.25;5.30;;;;;;;1.66;75.47;101650.81;4120897;28;20045;-64
2023/01/22 07:10:05;;;;;;;9.50;6.15;;;;;;;1.57;75.29;101653.63;4124641;28;20643;-63
2023/01/22 07:12:08;;;;;;;8.30;5.85;;;;;;;1.62;74.89;101654.84;4127458;28;20045;-63
2023/01/22 07:14:12;;;;;;;9.77;6.30;;;;;;;1.64;75.20;101655.84;4128030;28;20050;-63
2023/01/22 07:16:15;;;;;;;9.80;5.95;;;;;;;1.63;75.21;101665.97;4128020;28;20489;-62
2023/01/22 07:18:19;;;;;;;10.18;6.05;;;;;;;1.62;74.72;101670.22;4119101;28;20037;-63
2023/01/22 07:20:23;;;;;;;9.73;5.75;;;;;;;1.62;74.83;101664.19;4120438;28;20050;-63
2023/01/22 07:22:26;;;;;;;9.82;5.95;;;;;;;1.57;75.34;101671.56;4124281;28;20381;-62
2023/01/22 07:24:29;;;;;;;8.85;5.97;;;;;;;1.60;74.99;101670.91;4126767;28;20126;-63
2023/01/22 07:26:31;;;;;;;8.30;5.70;;;;;;;1.67;74.71;101673.97;4128821;28;20038;-63
2023/01/22 07:28:34;;;;;;;10.27;5.72;;;;;;;1.68;74.42;101675.78;4110347;28;20433;-62
2023/01/22 07:30:39;;;;;;;6.63;4.97;;;;;;;1.70;74.90;101674.19;4116204;28;20338;-62
2023/01/22 07:32:42;;;;;;;9.20;4.60;;;;;;;1.63;74.83;101684.78;4120340;28;20089;-62
2023/01/22 07:34:45;;;;;;;7.65;5.82;;;;;;;1.62;75.54;101690.72;4110242;28;20579;-66
2023/01/22 07:36:47;;;;;;;7.90;5.30;;;;;;;1.67;75.14;101691.94;4125620;28;20051;-64
2023/01/22 07:38:50;;;;;;;7.53;5.32;;;;;;;1.66;74.52;101682.44;4122409;28;20407;-62
2023/01/22 07:40:54;;;;;;;8.18;5.35;;;;;;;1.62;75.08;101689.81;4129425;28;20050;-62
2023/01/22 07:42:57;;;;;;;7.68;5.13;;;;;;;1.66;74.72;101692.69;4124147;28;20054;-62
2023/01/22 07:45:00;;;;;;;8.38;6.03;;;;;;;1.60;74.99;101687.16;4107967;28;20559;-63
2023/01/22 07:47:04;;;;;;;8.52;5.82;;;;;;;1.69;75.29;101692.91;4119777;28;20527;-62
2023/01/22 07:49:07;;;;;;;7.53;5.90;;;;;;;1.66;75.42;101695.25;4124168;28;20051;-62
2023/01/22 07:51:11;;;;;;;8.05;5.65;;;;;;;1.64;75.35;101699.41;4125733;28;20050;-62
2023/01/22 07:53:14;;;;;;;7.10;5.45;;;;;;;1.71;74.67;101699.06;4125591;28;20050;-62
2023/01/22 07:55:17;;;;;;;7.65;5.30;;;;;;;1.71;75.13;101699.06;4127906;28;20043;-62
2023/01/22 07:57:20;;;;;;;8.57;5.65;;;;;;;1.79;75.62;101706.41;4100966;28;20050;-62
2023/01/22 07:59:23;;;;;;;10.50;6.53;;;;;;;1.70;75.33;101704.97;4119013;28;20043;-63
2023/01/22 08:01:25;;;;;;;8.20;5.57;;;;;;;1.74;74.86;101701.81;4121515;28;20045;-62
2023/01/22 08:03:32;;;;;;;9.77;6.55;;;;;;;1.64;75.56;101703.66;4124878;28;20050;-62
2023/01/22 08:05:35;;;;;;;11.98;6.78;;;;;;;1.69;75.69;101702.28;4120665;28;20113;-62
2023/01/22 08:07:38;;;;;;;8.75;5.68;;;;;;;1.67;76.07;101712.44;4108127;28;20057;-64
2023/01/22 08:09:41;;;;;;;8.63;5.55;;;;;;;1.82;75.24;101722.88;4109006;28;20106;-64
2023/01/22 08:11:44;;;;;;;7.85;5.38;;;;;;;1.73;75.32;101714.53;4115179;28;20520;-63
2023/01/22 08:13:47;;;;;;;9.63;6.90;;;;;;;1.77;76.21;101720.75;4116059;28;20157;-62
2023/01/22 08:15:50;;;;;;;7.72;5.05;;;;;;;1.89;75.77;101727.63;4116839;28;20504;-62
2023/01/22 08:17:52;;;;;;;8.57;6.22;;;;;;;1.84;75.48;101726.44;4116210;28;20051;-62
2023/01/22 08:19:56;;;;;;;9.45;5.65;;;;;;;1.86;75.33;101729.13;4127866;28;20476;-62
2023/01/22 08:21:59;;;;;;;9.27;6.18;;;;;;;1.75;75.48;101723.22;4121300;28;20058;-62
2023/01/22 08:24:03;;;;;;;10.52;6.78;;;;;;;1.83;76.42;101731.47;4115722;28;20097;-63
2023/01/22 08:26:06;;;;;;;9.80;6.63;;;;;;;1.77;76.14;101736.13;4117395;28;20053;-63
2023/01/22 08:28:09;;;;;;;9.63;6.28;;;;;;;1.83;76.08;101726.34;4120467;28;20057;-62
2023/01/22 08:30:14;;;;;;;8.73;5.93;;;;;;;1.82;76.03;101735.69;4119210;28;20043;-63
2023/01/22 08:32:18;;;;;;;12.15;6.28;;;;;;;1.97;75.83;101738.47;4123722;28;20133;-66
2023/01/22 08:34:22;;;;;;;10.20;6.70;;;;;;;1.92;75.92;101738.09;4103754;28;20051;-67
2023/01/22 08:36:26;;;;;;;11.65;6.65;;;;;;;1.95;76.01;101736.56;4112910;28;20038;-62
2023/01/22 08:38:29;;;;;;;9.18;6.43;;;;;;;2.01;75.59;101740.41;4114873;28;20034;-64
2023/01/22 08:40:32;;;;;;;10.13;6.47;;;;;;;1.98;75.35;101736.78;4119894;28;20559;-66
2023/01/22 08:42:35;;;;;;;9.30;6.80;;;;;;;1.96;76.02;101746.00;4123602;28;20042;-65
2023/01/22 08:44:38;;;;;;;9.90;6.53;;;;;;;1.93;75.54;101746.72;4126453;28;20049;-64
2023/01/22 08:46:41;;;;;;;8.63;6.13;;;;;;;2.05;75.67;101749.25;4107350;28;20133;-64
2023/01/22 08:48:43;;;;;;;9.68;5.80;;;;;;;2.01;76.39;101753.25;4119995;28;20050;-65
2023/01/22 08:50:46;;;;;;;9.48;6.72;;;;;;;2.14;75.35;101748.97;4116658;28;20039;-66
2023/01/22 08:52:51;;;;;;;11.25;6.85;;;;;;;2.17;75.47;101749.19;4115588;28;20042;-62
2023/01/22 08:54:57;;;;;;;7.80;5.82;;;;;;;2.20;75.08;101754.53;4120705;28;20066;-65
2023/01/22 08:57:00;;;;;;;9.38;6.30;;;;;;;2.13;75.33;101754.88;4115921;28;20063;-62
2023/01/22 08:59:05;;;;;;;9.63;5.50;;;;;;;2.22;75.33;101750.38;4113441;28;20616;-60
2023/01/22 09:01:14;;;;;;;9.95;6.78;;;;;;;2.33;75.07;101746.88;4113389;28;20067;-61
2023/01/22 09:03:17;;;;;;;9.00;5.55;;;;;;;2.41;74.11;101749.97;4108451;28;20459;-61
2023/01/22 09:05:20;;;;;;;9.48;6.80;;;;;;;2.35;74.25;101740.19;4116304;28;20046;-62
2023/01/22 09:07:22;;;;;;;8.25;5.68;;;;;;;2.48;74.46;101746.16;4109457;28;20133;-62
2023/01/22 09:09:27;;;;;;;10.35;6.25;;;;;;;2.42;74.14;101750.09;4104792;28;20053;-61
2023/01/22 09:11:31;;;;;;;8.88;6.20;;;;;;;2.51;74.50;101752.41;4109077;28;20428;-61
2023/01/22 09:13:33;;;;;;;8.20;5.55;;;;;;;2.62;73.28;101750.53;4110546;28;20038;-61
2023/01/22 09:15:37;;;;;;;8.25;5.97;;;;;;;2.59;72.78;101756.34;4109127;28;20493;-61
2023/01/22 09:17:41;;;;;;;7.50;5.47;;;;;;;2.61;73.58;101753.88;4110480;28;20484;-62
2023/01/22 09:19:43;;;;;;;8.50;5.97;;;;;;;2.53;73.28;101755.94;4113654;28;20105;-61
2023/01/22 09:21:46;;;;;;;8.90;6.00;;;;;;;2.54;72.87;101756.81;4114655;28;20045;-62
2023/01/22 09:23:49;;;;;;;8.27;5.70;;;;;;;2.44;73.10;101768.16;4112092;28;20474;-61
2023/01/22 09:25:53;;;;;;;7.95;5.85;;;;;;;2.49;73.66;101768.47;4108316;28;20047;-63
2023/01/22 09:27:59;;;;;;;9.82;6.05;;;;;;;2.53;73.68;101765.34;4112499;28;20555;-64
2023/01/22 09:30:03;;;;;;;8.80;6.53;;;;;;;2.63;73.40;101770.31;4111780;28;20485;-65
2023/01/22 09:32:06;;;;;;;8.90;6.05;;;;;;;2.66;72.79;101767.94;4108800;28;20564;-65
2023/01/22 09:34:09;;;;;;;10.82;6.85;;;;;;;2.55;73.52;101774.91;4115223;28;20459;-65
2023/01/22 09:36:14;;;;;;;8.38;5.88;;;;;;;2.59;72.88;101770.88;4109661;28;20042;-65
2023/01/22 09:38:17;;;;;;;;;;;;;;;2.58;72.75;101774.22;4108266;28;20034;-67
2023/01/22 09:40:24;;;;;;;8.93;5.60;;;;;;;2.61;72.96;101774.44;4104831;28;19961;-68
2023/01/22 09:42:32;;;;;;;11.10;6.32;;;;;;;2.57;73.75;101777.56;4109501;28;20074;-68
2023/01/22 09:44:39;;;;;;;8.40;6.28;;;;;;;2.55;73.54;101776.59;4114465;28;20047;-68
2023/01/22 09:46:45;;;;;;;9.43;6.00;;;;;;;2.55;73.74;101777.47;4117278;28;20074;-67
2023/01/22 09:48:53;;;;;;;9.95;6.05;;;;;;;2.57;72.92;101778.47;4112491;28;20039;-65
2023/01/22 09:50:56;;;;;;;10.98;6.90;;;;;;;2.69;72.51;101780.97;4111211;28;20045;-66